createdAt,value
2022-08-11T00:14:36.867Z,24.67
2022-08-11T00:29:51.843Z,24.51
2022-08-11T00:45:02.989Z,24.37
2022-08-11T01:00:20.955Z,24.18
2022-08-11T01:15:57.038Z,23.99
2022-08-11T01:31:41.949Z,23.94
2022-08-11T01:46:50.629Z,23.87
2022-08-11T02:02:20.585Z,23.83
2022-08-11T02:17:57.261Z,23.68
2022-08-11T02:33:23.602Z,23.75
2022-08-11T02:49:06.944Z,23.84
2022-08-11T03:04:18.033Z,24.02
2022-08-11T03:19:29.707Z,24.16
2022-08-11T03:34:38.395Z,24.29
2022-08-11T03:49:55.333Z,24.44
2022-08-11T04:05:22.075Z,24.54
2022-08-11T04:21:03.323Z,24.48
2022-08-11T04:36:51.533Z,24.63
2022-08-11T04:52:41.709Z,24.77
2022-08-11T05:08:21.937Z,24.87
2022-08-11T05:23:46.806Z,25.99
2022-08-11T05:39:19.993Z,25.88
2022-08-11T05:54:59.192Z,27.33
2022-08-11T06:10:01.390Z,27.90
2022-08-11T06:25:05.765Z,27.85
2022-08-11T06:40:28.460Z,28.58
2022-08-11T06:55:55.818Z,29.45
2022-08-11T07:11:21.739Z,30.04
2022-08-11T07:26:44.823Z,31.39
2022-08-11T07:41:48.975Z,31.81
2022-08-11T07:57:07.254Z,33.14
2022-08-11T08:12:30.896Z,33.13
2022-08-11T08:27:34.843Z,33.50
2022-08-11T08:42:46.953Z,34.19
2022-08-11T08:57:55.111Z,34.33
2022-08-11T09:13:00.785Z,35.01
2022-08-11T09:28:05.145Z,35.40
2022-08-11T09:43:29.351Z,35.44
2022-08-11T09:58:43.006Z,35.61
2022-08-11T10:14:33.905Z,35.25
2022-08-11T10:29:56.930Z,34.91
2022-08-11T10:45:02.360Z,34.69
2022-08-11T11:00:07.041Z,35.61
2022-08-11T11:15:29.734Z,36.48
2022-08-11T11:30:43.117Z,34.59
2022-08-11T11:45:45.434Z,33.84
2022-08-11T12:01:06.237Z,33.82
2022-08-11T12:16:35.286Z,33.49
2022-08-11T12:31:40.252Z,33.28
2022-08-11T12:46:46.012Z,33.46
2022-08-11T13:02:23.421Z,33.10
2022-08-11T13:17:43.545Z,32.92
2022-08-11T13:32:46.667Z,32.29
2022-08-11T13:47:50.478Z,31.62
2022-08-11T14:02:54.988Z,31.30
2022-08-11T14:18:09.466Z,31.00
2022-08-11T14:33:16.960Z,30.66
2022-08-11T14:48:19.515Z,30.57
2022-08-11T15:03:27.620Z,30.43
2022-08-11T15:18:31.546Z,30.17
2022-08-11T15:33:56.326Z,29.97
2022-08-11T15:48:59.984Z,29.94
2022-08-11T16:04:12.718Z,29.89
2022-08-11T16:19:16.995Z,29.82
2022-08-11T16:34:38.330Z,29.78
2022-08-11T16:49:52.259Z,29.66
2022-08-11T17:05:14.885Z,28.12
2022-08-11T17:20:39.706Z,25.28
2022-08-11T17:35:43.692Z,24.74
2022-08-11T17:50:47.023Z,25.15
2022-08-11T18:05:51.462Z,25.58
2022-08-11T18:21:12.333Z,25.96
2022-08-11T18:36:40.443Z,25.86
2022-08-11T18:52:05.734Z,24.56
2022-08-11T19:07:28.281Z,24.64
2022-08-11T19:22:50.384Z,24.99
2022-08-11T19:38:11.892Z,25.11
2022-08-11T19:53:32.472Z,25.05
2022-08-11T20:08:58.388Z,24.83
2022-08-11T20:24:20.894Z,24.33
2022-08-11T20:39:43.637Z,24.15
2022-08-11T20:55:05.239Z,24.10
2022-08-11T21:10:42.641Z,24.33
2022-08-11T21:26:07.379Z,24.55
2022-08-11T21:41:29.482Z,24.53
2022-08-11T21:56:52.203Z,24.58
2022-08-11T22:12:30.047Z,24.72
2022-08-11T22:27:53.269Z,24.74
2022-08-11T22:43:14.782Z,24.81
2022-08-11T22:58:38.280Z,24.86
2022-08-11T23:13:59.059Z,24.91
2022-08-11T23:29:20.104Z,25.17
2022-08-11T23:44:40.673Z,25.28
